createdAt,value
2019-02-26T00:00:10.263Z,6.17
2019-02-26T00:01:08.806Z,6.17
2019-02-26T00:02:08.807Z,6.26
2019-02-26T00:03:08.801Z,6.22
2019-02-26T00:04:08.777Z,6.19
2019-02-26T00:05:08.769Z,6.19
2019-02-26T00:06:08.738Z,6.17
2019-02-26T00:07:09.355Z,6.13
2019-02-26T00:08:08.749Z,6.13
2019-02-26T00:09:08.762Z,6.15
2019-02-26T00:10:08.724Z,6.15
2019-02-26T00:11:10.686Z,6.26
2019-02-26T00:12:08.726Z,6.15
2019-02-26T00:13:08.718Z,6.17
2019-02-26T00:14:13.148Z,6.17
2019-02-26T00:15:09.663Z,6.15
2019-02-26T00:16:10.558Z,6.13
2019-02-26T00:17:10.645Z,6.02
2019-02-26T00:18:11.534Z,5.97
2019-02-26T00:19:09.787Z,5.92
2019-02-26T00:20:10.958Z,5.97
2019-02-26T00:21:08.555Z,5.94
2019-02-26T00:22:09.515Z,5.95
2019-02-26T00:23:09.361Z,5.92
2019-02-26T00:24:09.892Z,5.91
2019-02-26T00:25:10.338Z,5.84
2019-02-26T00:26:10.462Z,5.81
2019-02-26T00:27:09.735Z,5.79
2019-02-26T00:28:08.507Z,5.72
2019-02-26T00:29:08.497Z,5.76
2019-02-26T00:30:09.580Z,5.69
2019-02-26T00:31:08.492Z,5.72
2019-02-26T00:32:09.943Z,5.72
2019-02-26T00:33:08.463Z,5.72
2019-02-26T00:34:10.656Z,5.64
2019-02-26T00:35:08.417Z,5.72
2019-02-26T00:36:09.084Z,5.59
2019-02-26T00:37:08.531Z,5.67
2019-02-26T00:38:09.028Z,5.69
2019-02-26T00:39:08.465Z,5.59
2019-02-26T00:40:10.030Z,5.65
2019-02-26T00:41:08.341Z,5.58
2019-02-26T00:42:08.430Z,5.65
2019-02-26T00:43:08.411Z,5.61
2019-02-26T00:44:08.375Z,5.54
2019-02-26T00:45:08.347Z,5.55
2019-02-26T00:46:10.264Z,5.65
2019-02-26T00:47:09.028Z,5.65
2019-02-26T00:48:08.282Z,5.62
2019-02-26T00:49:08.305Z,5.59
2019-02-26T00:50:09.552Z,5.62
2019-02-26T00:51:08.270Z,5.59
2019-02-26T00:52:09.297Z,5.55
2019-02-26T00:53:08.258Z,5.51
2019-02-26T00:54:08.243Z,5.44
2019-02-26T00:55:09.500Z,5.41
2019-02-26T00:56:10.209Z,5.38
2019-02-26T00:57:08.875Z,5.38
2019-02-26T00:58:09.040Z,5.43
2019-02-26T00:59:08.211Z,5.44
2019-02-26T01:00:09.799Z,5.41
2019-02-26T01:01:10.304Z,5.34
2019-02-26T01:02:08.135Z,5.31
2019-02-26T01:03:09.150Z,5.31
2019-02-26T01:04:08.149Z,5.34
2019-02-26T01:05:08.728Z,5.28
2019-02-26T01:06:08.100Z,5.33
2019-02-26T01:07:08.092Z,5.29
2019-02-26T01:08:12.357Z,5.23
2019-02-26T01:09:10.694Z,5.31
2019-02-26T01:10:08.085Z,5.33
2019-02-26T01:11:08.443Z,5.33
2019-02-26T01:12:09.236Z,5.20
2019-02-26T01:13:08.028Z,5.19
2019-02-26T01:14:08.043Z,5.20
2019-02-26T01:15:09.415Z,5.23
2019-02-26T01:16:08.004Z,5.18
2019-02-26T01:17:09.851Z,5.19
2019-02-26T01:18:08.007Z,5.31
2019-02-26T01:19:09.061Z,5.37
2019-02-26T01:20:07.960Z,5.33
2019-02-26T01:21:07.989Z,5.28
2019-02-26T01:22:07.942Z,5.34
2019-02-26T01:23:07.934Z,5.26
2019-02-26T01:24:08.624Z,5.38
2019-02-26T01:25:07.935Z,5.28
2019-02-26T01:26:10.037Z,5.36
2019-02-26T01:27:07.889Z,5.34
2019-02-26T01:28:07.892Z,5.37
2019-02-26T01:29:07.887Z,5.33
2019-02-26T01:30:07.891Z,5.34
2019-02-26T01:31:07.937Z,5.34
2019-02-26T01:32:11.014Z,5.15
2019-02-26T01:33:09.782Z,5.22
2019-02-26T01:34:11.021Z,5.25
2019-02-26T01:35:09.014Z,5.18
2019-02-26T01:36:07.820Z,5.19
2019-02-26T01:37:09.878Z,5.18
2019-02-26T01:38:07.761Z,5.04
2019-02-26T01:39:11.270Z,5.02
2019-02-26T01:40:12.273Z,5.05
2019-02-26T01:41:11.249Z,5.02
2019-02-26T01:42:07.799Z,4.98
2019-02-26T01:43:07.733Z,5.01
2019-02-26T01:44:08.827Z,4.98
2019-02-26T01:45:07.743Z,4.92
2019-02-26T01:46:09.547Z,4.98
2019-02-26T01:47:07.742Z,4.97
2019-02-26T01:48:09.239Z,5.01
2019-02-26T01:49:07.682Z,4.97
2019-02-26T01:50:09.344Z,4.98
2019-02-26T01:51:07.641Z,5.00
2019-02-26T01:52:08.421Z,5.01
2019-02-26T01:53:07.666Z,5.07
2019-02-26T01:54:09.862Z,4.98
2019-02-26T01:55:07.587Z,4.90
2019-02-26T01:56:07.597Z,4.92
2019-02-26T01:57:09.146Z,4.92
2019-02-26T01:58:07.585Z,4.89
2019-02-26T01:59:07.586Z,4.86
2019-02-26T02:00:07.544Z,4.76
2019-02-26T02:01:09.951Z,4.74
2019-02-26T02:02:12.250Z,4.75
2019-02-26T02:03:08.540Z,4.83
2019-02-26T02:04:08.765Z,4.67
2019-02-26T02:05:07.490Z,4.74
2019-02-26T02:06:09.018Z,4.84
2019-02-26T02:07:07.481Z,4.76
2019-02-26T02:08:11.028Z,4.82
2019-02-26T02:09:11.289Z,4.78
2019-02-26T02:10:07.466Z,4.74
2019-02-26T02:11:09.236Z,4.63
2019-02-26T02:12:08.860Z,4.64
2019-02-26T02:13:09.167Z,4.57
2019-02-26T02:14:08.217Z,4.61
2019-02-26T02:15:08.090Z,4.53
2019-02-26T02:16:09.001Z,4.50
2019-02-26T02:17:08.522Z,4.53
2019-02-26T02:18:07.424Z,4.57
2019-02-26T02:19:07.371Z,4.49
2019-02-26T02:20:07.958Z,4.49
2019-02-26T02:21:07.410Z,4.52
2019-02-26T02:22:07.383Z,4.48
2019-02-26T02:23:07.328Z,4.48
2019-02-26T02:24:10.786Z,4.45
2019-02-26T02:25:08.288Z,4.43
2019-02-26T02:26:09.403Z,4.36
2019-02-26T02:27:07.408Z,4.34
2019-02-26T02:28:07.253Z,4.43
2019-02-26T02:29:07.300Z,4.45
2019-02-26T02:30:07.238Z,4.43
2019-02-26T02:31:07.241Z,4.45
2019-02-26T02:32:07.690Z,4.46
2019-02-26T02:33:07.193Z,4.45
2019-02-26T02:34:07.166Z,4.39
2019-02-26T02:35:09.448Z,4.45
2019-02-26T02:36:07.217Z,4.42
2019-02-26T02:37:07.190Z,4.42
2019-02-26T02:38:07.211Z,4.46
2019-02-26T02:39:10.387Z,4.45
2019-02-26T02:40:07.190Z,4.57
2019-02-26T02:41:16.976Z,4.58
2019-02-26T02:42:18.921Z,4.63
2019-02-26T02:43:18.006Z,4.66
2019-02-26T02:44:17.873Z,4.57
2019-02-26T02:45:20.205Z,4.57
2019-02-26T02:46:07.077Z,4.58
2019-02-26T02:47:16.746Z,4.56
2019-02-26T02:48:08.994Z,4.60
2019-02-26T02:49:07.994Z,4.66
2019-02-26T02:50:09.232Z,4.57
2019-02-26T02:51:08.467Z,4.61
2019-02-26T02:52:09.059Z,4.61
2019-02-26T02:53:07.007Z,4.57
2019-02-26T02:54:06.966Z,4.45
2019-02-26T02:55:09.895Z,4.46
2019-02-26T02:56:17.835Z,4.42
2019-02-26T02:57:09.435Z,4.45
2019-02-26T02:58:06.937Z,4.46
2019-02-26T02:59:08.833Z,4.48
2019-02-26T03:00:08.534Z,4.48
2019-02-26T03:01:07.301Z,4.45
2019-02-26T03:02:06.906Z,4.48
2019-02-26T03:03:06.912Z,4.50
2019-02-26T03:04:06.933Z,4.48
2019-02-26T03:05:06.873Z,4.49
2019-02-26T03:06:07.780Z,4.53
2019-02-26T03:07:06.876Z,4.45
2019-02-26T03:08:08.082Z,4.46
2019-02-26T03:09:08.737Z,4.49
2019-02-26T03:10:09.535Z,4.48
2019-02-26T03:11:06.787Z,4.48
2019-02-26T03:12:17.207Z,4.45
2019-02-26T03:13:17.066Z,4.48
2019-02-26T03:14:18.474Z,4.53
2019-02-26T03:15:16.773Z,4.45
2019-02-26T03:16:06.728Z,4.42
2019-02-26T03:17:09.184Z,4.39
2019-02-26T03:18:17.280Z,4.38
2019-02-26T03:19:07.744Z,4.45
2019-02-26T03:20:07.666Z,4.36
2019-02-26T03:21:06.708Z,4.32
2019-02-26T03:22:07.279Z,4.43
2019-02-26T03:24:27.656Z,4.38
2019-02-26T03:25:35.516Z,4.34
2019-02-26T03:26:25.893Z,4.32
2019-02-26T03:27:27.823Z,4.39
2019-02-26T03:28:24.064Z,4.30
2019-02-26T03:29:24.081Z,4.38
2019-02-26T03:30:32.135Z,4.34
2019-02-26T03:31:28.523Z,4.31
2019-02-26T03:32:24.018Z,4.32
2019-02-26T03:33:24.046Z,4.38
2019-02-26T03:34:25.285Z,4.36
2019-02-26T03:35:24.004Z,4.39
2019-02-26T03:36:23.967Z,4.27
2019-02-26T03:37:25.689Z,4.42
2019-02-26T03:38:26.234Z,4.36
2019-02-26T03:39:23.977Z,4.24
2019-02-26T03:40:26.558Z,4.28
2019-02-26T03:41:26.130Z,4.34
2019-02-26T03:42:23.918Z,4.28
2019-02-26T03:43:23.911Z,4.34
2019-02-26T03:44:23.903Z,4.36
2019-02-26T03:45:25.096Z,4.31
2019-02-26T03:46:23.896Z,4.30
2019-02-26T03:47:23.844Z,4.28
2019-02-26T03:48:23.856Z,4.27
2019-02-26T03:49:27.102Z,4.21
2019-02-26T03:50:26.434Z,4.20
2019-02-26T03:51:23.837Z,4.14
2019-02-26T03:52:23.811Z,4.14
2019-02-26T03:53:34.268Z,4.07
2019-02-26T03:54:23.761Z,4.07
2019-02-26T03:55:23.768Z,4.07
2019-02-26T03:56:24.411Z,4.06
2019-02-26T03:57:24.788Z,4.10
2019-02-26T03:58:23.723Z,4.13
2019-02-26T04:00:16.830Z,4.16
2019-02-26T04:01:18.326Z,4.13
2019-02-26T04:02:17.455Z,4.10
2019-02-26T04:03:17.312Z,4.10
2019-02-26T04:04:14.932Z,4.14
2019-02-26T04:05:14.941Z,4.14
2019-02-26T04:06:14.984Z,4.16
2019-02-26T04:07:14.946Z,4.14
2019-02-26T04:08:16.651Z,4.10
2019-02-26T04:09:17.219Z,4.13
2019-02-26T04:10:14.880Z,4.16
2019-02-26T04:11:16.855Z,4.22
2019-02-26T04:12:15.480Z,4.18
2019-02-26T04:13:14.887Z,4.14
2019-02-26T04:14:15.357Z,4.12
2019-02-26T04:15:14.890Z,4.18
2019-02-26T04:16:14.858Z,4.14
2019-02-26T04:17:14.800Z,4.18
2019-02-26T04:18:14.797Z,4.20
2019-02-26T04:19:14.799Z,4.21
2019-02-26T04:20:14.818Z,4.10
2019-02-26T04:21:15.790Z,4.20
2019-02-26T04:22:15.230Z,4.14
2019-02-26T04:23:18.714Z,4.21
2019-02-26T04:24:14.729Z,4.20
2019-02-26T04:25:14.730Z,4.22
2019-02-26T04:26:18.551Z,4.18
2019-02-26T04:27:15.708Z,4.31
2019-02-26T04:28:14.732Z,4.18
2019-02-26T04:29:14.673Z,4.12
2019-02-26T04:30:16.241Z,4.13
2019-02-26T04:31:15.501Z,4.12
2019-02-26T04:32:15.950Z,4.12
2019-02-26T04:33:14.661Z,4.03
2019-02-26T04:34:14.652Z,4.18
2019-02-26T04:35:14.692Z,4.10
2019-02-26T04:36:16.794Z,4.12
2019-02-26T04:37:14.709Z,4.10
2019-02-26T04:38:14.562Z,4.06
2019-02-26T04:39:18.358Z,4.09
2019-02-26T04:40:14.614Z,4.09
2019-02-26T04:41:15.984Z,4.10
2019-02-26T04:42:17.619Z,4.09
2019-02-26T04:43:15.513Z,4.10
2019-02-26T04:44:14.520Z,4.14
2019-02-26T04:45:14.675Z,4.09
2019-02-26T04:46:17.553Z,4.09
2019-02-26T04:47:14.492Z,4.09
2019-02-26T04:48:17.136Z,4.06
2019-02-26T04:49:14.479Z,4.10
2019-02-26T04:50:14.496Z,4.09
2019-02-26T04:51:14.517Z,4.09
2019-02-26T04:52:17.286Z,4.18
2019-02-26T04:53:14.430Z,4.13
2019-02-26T04:54:21.109Z,4.18
2019-02-26T04:55:15.467Z,4.10
2019-02-26T04:56:15.065Z,4.12
2019-02-26T04:57:14.375Z,4.13
2019-02-26T04:58:15.542Z,4.13
2019-02-26T04:59:16.786Z,4.12
2019-02-26T05:00:14.373Z,4.10
2019-02-26T05:01:16.391Z,4.14
2019-02-26T05:02:14.387Z,4.13
2019-02-26T05:03:17.008Z,4.14
2019-02-26T05:04:14.368Z,4.14
2019-02-26T05:05:14.313Z,4.14
2019-02-26T05:06:14.393Z,4.16
2019-02-26T05:07:17.303Z,4.06
2019-02-26T05:08:17.649Z,4.09
2019-02-26T05:09:14.256Z,4.16
2019-02-26T05:10:14.279Z,4.21
2019-02-26T05:11:22.788Z,4.22
2019-02-26T05:12:15.832Z,4.20
2019-02-26T05:13:14.207Z,4.25
2019-02-26T05:14:15.393Z,4.24
2019-02-26T05:15:18.066Z,4.20
2019-02-26T05:16:15.172Z,4.27
2019-02-26T05:17:14.177Z,4.21
2019-02-26T05:18:14.168Z,4.24
2019-02-26T05:19:16.381Z,4.25
2019-02-26T05:20:16.574Z,4.24
2019-02-26T05:21:14.145Z,4.32
2019-02-26T05:22:14.189Z,4.28
2019-02-26T05:23:14.147Z,4.18
2019-02-26T05:24:15.735Z,4.24
2019-02-26T05:25:16.785Z,4.21
2019-02-26T05:26:17.850Z,4.36
2019-02-26T05:27:15.635Z,4.25
2019-02-26T05:28:15.618Z,4.31
2019-02-26T05:29:14.103Z,4.25
2019-02-26T05:30:17.163Z,4.25
2019-02-26T05:31:17.269Z,4.27
2019-02-26T05:32:14.023Z,4.32
2019-02-26T05:33:14.009Z,4.32
2019-02-26T05:34:15.145Z,4.36
2019-02-26T05:35:15.216Z,4.25
2019-02-26T05:36:15.100Z,4.28
2019-02-26T05:37:14.093Z,4.38
2019-02-26T05:38:13.934Z,4.22
2019-02-26T05:39:14.574Z,4.22
2019-02-26T05:40:16.396Z,4.22
2019-02-26T05:41:14.929Z,4.32
2019-02-26T05:42:14.093Z,4.39
2019-02-26T05:43:16.004Z,4.27
2019-02-26T05:44:17.549Z,4.24
2019-02-26T05:45:15.963Z,4.36
2019-02-26T05:46:16.024Z,4.45
2019-02-26T05:47:18.697Z,4.28
2019-02-26T05:48:20.579Z,4.30
2019-02-26T05:49:16.404Z,4.27
2019-02-26T05:50:16.601Z,4.39
2019-02-26T05:51:13.852Z,4.24
2019-02-26T05:52:18.631Z,4.24
2019-02-26T05:53:14.439Z,4.21
2019-02-26T05:54:15.294Z,4.21
2019-02-26T05:55:14.610Z,4.18
2019-02-26T05:56:14.583Z,4.14
2019-02-26T05:57:25.938Z,4.09
2019-02-26T05:58:18.038Z,4.12
2019-02-26T05:59:15.411Z,4.13
2019-02-26T06:00:17.237Z,4.14
2019-02-26T06:01:16.877Z,4.12
2019-02-26T06:02:16.196Z,4.13
2019-02-26T06:03:16.269Z,4.04
2019-02-26T06:04:15.033Z,4.03
2019-02-26T06:05:14.357Z,4.06
2019-02-26T06:06:14.056Z,4.07
2019-02-26T06:07:14.202Z,3.99
2019-02-26T06:08:13.770Z,3.96
2019-02-26T06:09:13.770Z,4.00
2019-02-26T06:10:13.748Z,3.95
2019-02-26T06:11:16.922Z,4.03
2019-02-26T06:12:16.085Z,4.06
2019-02-26T06:13:15.727Z,3.96
2019-02-26T06:14:14.219Z,4.03
2019-02-26T06:15:13.928Z,4.09
2019-02-26T06:16:14.293Z,4.03
2019-02-26T06:17:15.548Z,4.07
2019-02-26T06:18:14.075Z,4.07
2019-02-26T06:19:15.704Z,4.04
2019-02-26T06:20:13.536Z,3.94
2019-02-26T06:21:15.806Z,3.95
2019-02-26T06:22:17.012Z,3.99
2019-02-26T06:23:17.868Z,4.03
2019-02-26T06:24:13.612Z,3.94
2019-02-26T06:25:18.697Z,4.00
2019-02-26T06:26:17.638Z,4.00
2019-02-26T06:27:27.288Z,4.00
2019-02-26T06:28:16.119Z,4.00
2019-02-26T06:29:19.948Z,4.02
2019-02-26T06:30:14.423Z,4.04
2019-02-26T06:31:14.639Z,4.04
2019-02-26T06:32:13.402Z,4.04
2019-02-26T06:33:14.051Z,4.04
2019-02-26T06:34:14.339Z,4.03
2019-02-26T06:35:14.292Z,4.06
2019-02-26T06:36:13.339Z,4.09
2019-02-26T06:37:13.931Z,4.06
2019-02-26T06:38:13.351Z,4.06
2019-02-26T06:39:13.313Z,4.06
2019-02-26T06:40:13.331Z,4.02
2019-02-26T06:41:13.279Z,4.10
2019-02-26T06:42:14.500Z,4.04
2019-02-26T06:43:13.246Z,4.12
2019-02-26T06:44:13.241Z,4.04
2019-02-26T06:45:13.904Z,4.06
2019-02-26T06:46:14.191Z,4.13
2019-02-26T06:47:13.216Z,4.09
2019-02-26T06:48:16.937Z,4.06
2019-02-26T06:49:14.958Z,4.07
2019-02-26T06:50:15.333Z,4.04
2019-02-26T06:51:13.242Z,4.06
2019-02-26T06:52:15.359Z,4.14
2019-02-26T06:53:13.636Z,4.12
2019-02-26T06:54:15.373Z,4.12
2019-02-26T06:55:13.147Z,4.14
2019-02-26T06:56:13.135Z,4.14
2019-02-26T06:57:13.168Z,4.14
2019-02-26T06:58:13.102Z,4.07
2019-02-26T06:59:13.143Z,4.10
2019-02-26T07:00:13.073Z,4.10
2019-02-26T07:01:14.333Z,4.07
2019-02-26T07:02:13.118Z,4.09
2019-02-26T07:03:13.050Z,4.10
2019-02-26T07:04:13.105Z,4.10
2019-02-26T07:05:13.033Z,4.10
2019-02-26T07:06:13.031Z,4.10
2019-02-26T07:07:14.447Z,4.13
2019-02-26T07:08:13.011Z,4.13
2019-02-26T07:09:13.783Z,4.13
2019-02-26T07:10:15.970Z,4.13
2019-02-26T07:11:13.990Z,4.12
2019-02-26T07:12:14.627Z,4.09
2019-02-26T07:13:14.153Z,4.10
2019-02-26T07:14:12.949Z,4.12
2019-02-26T07:15:12.940Z,4.03
2019-02-26T07:16:12.955Z,4.18
2019-02-26T07:17:12.927Z,4.18
2019-02-26T07:18:16.992Z,4.20
2019-02-26T07:19:15.097Z,4.14
2019-02-26T07:20:12.896Z,4.10
2019-02-26T07:21:12.853Z,4.13
2019-02-26T07:22:13.530Z,4.10
2019-02-26T07:23:14.952Z,4.10
2019-02-26T07:24:12.885Z,4.07
2019-02-26T07:25:15.334Z,4.13
2019-02-26T07:26:13.619Z,4.28
2019-02-26T07:27:13.923Z,4.20
2019-02-26T07:28:12.793Z,4.32
2019-02-26T07:29:14.389Z,4.36
2019-02-26T07:30:12.773Z,4.40
2019-02-26T07:31:12.747Z,4.45
2019-02-26T07:32:14.601Z,4.57
2019-02-26T07:33:15.053Z,4.46
2019-02-26T07:34:12.786Z,4.67
2019-02-26T07:35:14.373Z,4.70
2019-02-26T07:36:12.702Z,4.70
2019-02-26T07:37:13.469Z,4.79
2019-02-26T07:38:12.683Z,4.78
2019-02-26T07:39:13.525Z,4.71
2019-02-26T07:40:15.193Z,4.78
2019-02-26T07:41:12.662Z,4.74
2019-02-26T07:42:14.716Z,4.82
2019-02-26T07:43:14.847Z,4.84
2019-02-26T07:44:15.561Z,4.92
2019-02-26T07:45:15.235Z,5.01
2019-02-26T07:46:14.471Z,5.10
2019-02-26T07:47:12.586Z,5.15
2019-02-26T07:48:16.069Z,5.18
2019-02-26T07:49:12.570Z,5.40
2019-02-26T07:50:14.583Z,5.31
2019-02-26T07:51:12.632Z,5.37
2019-02-26T07:52:12.545Z,5.41
2019-02-26T07:53:14.350Z,5.47
2019-02-26T07:54:12.510Z,5.47
2019-02-26T07:55:14.712Z,5.46
2019-02-26T07:56:12.711Z,5.64
2019-02-26T07:57:12.560Z,5.58
2019-02-26T07:58:13.763Z,5.58
2019-02-26T07:59:13.101Z,5.59
2019-02-26T08:00:12.460Z,5.67
2019-02-26T08:01:12.459Z,5.62
2019-02-26T08:02:13.585Z,5.54
2019-02-26T08:03:12.463Z,5.69
2019-02-26T08:04:13.576Z,5.64
2019-02-26T08:05:12.454Z,5.67
2019-02-26T08:06:14.054Z,5.67
2019-02-26T08:07:12.379Z,5.58
2019-02-26T08:08:14.225Z,5.55
2019-02-26T08:09:14.549Z,5.59
2019-02-26T08:10:14.484Z,5.61
2019-02-26T08:11:12.369Z,5.67
2019-02-26T08:12:13.706Z,5.69
2019-02-26T08:13:12.356Z,5.62
2019-02-26T08:14:14.362Z,5.72
2019-02-26T08:15:12.822Z,5.87
2019-02-26T08:16:12.303Z,5.87
2019-02-26T08:17:12.270Z,5.91
2019-02-26T08:18:12.292Z,5.99
2019-02-26T08:19:12.297Z,6.13
2019-02-26T08:20:14.602Z,6.20
2019-02-26T08:21:12.234Z,6.38
2019-02-26T08:22:12.220Z,6.46
2019-02-26T08:23:12.207Z,6.39
2019-02-26T08:24:14.407Z,6.47
2019-02-26T08:25:12.204Z,6.47
2019-02-26T08:26:12.803Z,6.50
2019-02-26T08:27:13.574Z,6.50
2019-02-26T08:28:13.511Z,6.50
2019-02-26T08:29:12.507Z,6.35
2019-02-26T08:30:14.169Z,6.50
2019-02-26T08:31:15.455Z,6.50
2019-02-26T08:32:15.860Z,6.52
2019-02-26T08:33:13.147Z,6.54
2019-02-26T08:34:13.497Z,6.57
2019-02-26T08:35:12.091Z,6.60
2019-02-26T08:36:14.103Z,6.60
2019-02-26T08:37:12.052Z,6.67
2019-02-26T08:38:12.045Z,6.72
2019-02-26T08:39:14.948Z,6.87
2019-02-26T08:40:12.061Z,7.07
2019-02-26T08:41:12.099Z,7.23
2019-02-26T08:42:12.028Z,7.15
2019-02-26T08:43:12.018Z,7.15
2019-02-26T08:44:12.025Z,7.11
2019-02-26T08:45:12.494Z,7.01
2019-02-26T08:46:13.948Z,7.13
2019-02-26T08:47:14.015Z,7.13
2019-02-26T08:48:13.269Z,7.28
2019-02-26T08:49:13.756Z,7.36
2019-02-26T08:50:12.459Z,7.39
2019-02-26T08:51:16.051Z,7.33
2019-02-26T08:52:12.826Z,7.37
2019-02-26T08:53:11.893Z,7.56
2019-02-26T08:54:20.587Z,7.55
2019-02-26T08:55:13.650Z,7.48
2019-02-26T08:56:11.869Z,7.47
2019-02-26T08:57:12.052Z,7.33
2019-02-26T08:58:12.534Z,7.41
2019-02-26T08:59:11.835Z,7.47
2019-02-26T09:00:11.832Z,7.58
2019-02-26T09:01:11.818Z,7.48
2019-02-26T09:02:11.869Z,7.48
2019-02-26T09:03:13.837Z,7.53
2019-02-26T09:04:12.363Z,7.58
2019-02-26T09:05:11.994Z,7.61
2019-02-26T09:06:13.625Z,7.66
2019-02-26T09:07:11.745Z,7.77
2019-02-26T09:08:14.000Z,7.85
2019-02-26T09:09:11.727Z,7.85
2019-02-26T09:10:13.104Z,7.96
2019-02-26T09:11:13.539Z,8.06
2019-02-26T09:12:11.697Z,8.06
2019-02-26T09:13:13.840Z,8.14
2019-02-26T09:14:13.985Z,8.08
2019-02-26T09:15:11.674Z,8.11
2019-02-26T09:16:11.657Z,8.14
2019-02-26T09:17:11.644Z,8.21
2019-02-26T09:18:11.632Z,8.32
2019-02-26T09:19:11.633Z,8.20
2019-02-26T09:20:12.324Z,8.32
2019-02-26T09:21:13.467Z,8.32
2019-02-26T09:22:14.043Z,8.36
2019-02-26T09:23:16.386Z,8.45
2019-02-26T09:24:12.639Z,8.46
2019-02-26T09:25:11.552Z,8.49
2019-02-26T09:26:11.553Z,8.45
2019-02-26T09:27:11.544Z,8.45
2019-02-26T09:28:11.527Z,8.44
2019-02-26T09:29:12.721Z,8.44
2019-02-26T09:30:13.463Z,8.45
2019-02-26T09:31:12.275Z,8.49
2019-02-26T09:32:12.171Z,8.32
2019-02-26T09:33:11.508Z,8.28
2019-02-26T09:34:11.473Z,8.42
2019-02-26T09:35:12.265Z,8.39
2019-02-26T09:36:14.959Z,8.56
2019-02-26T09:37:11.460Z,8.69
2019-02-26T09:38:12.339Z,8.71
2019-02-26T09:39:13.035Z,8.79
2019-02-26T09:40:11.400Z,8.96
2019-02-26T09:41:12.254Z,9.02
2019-02-26T09:42:11.370Z,8.99
2019-02-26T09:43:12.914Z,8.84
2019-02-26T09:44:11.675Z,8.82
2019-02-26T09:45:11.395Z,8.74
2019-02-26T09:46:14.426Z,8.81
2019-02-26T09:47:11.332Z,8.87
2019-02-26T09:48:12.291Z,8.81
2019-02-26T09:49:12.629Z,9.02
2019-02-26T09:50:12.930Z,8.95
2019-02-26T09:51:12.447Z,9.08
2019-02-26T09:52:11.274Z,9.11
2019-02-26T09:53:11.275Z,8.97
2019-02-26T09:54:13.194Z,8.87
2019-02-26T09:55:11.261Z,8.87
2019-02-26T09:56:11.241Z,8.78
2019-02-26T09:57:11.273Z,8.92
2019-02-26T09:58:13.337Z,8.96
2019-02-26T09:59:13.042Z,9.08
2019-02-26T10:00:11.189Z,8.95
2019-02-26T10:01:13.403Z,9.08
2019-02-26T10:02:11.179Z,9.03
2019-02-26T10:03:13.220Z,9.21
2019-02-26T10:04:11.185Z,9.27
2019-02-26T10:05:11.788Z,9.30
2019-02-26T10:06:11.875Z,9.45
2019-02-26T10:07:11.834Z,9.59
2019-02-26T10:08:11.105Z,9.70
2019-02-26T10:09:13.160Z,9.67
2019-02-26T10:10:12.160Z,9.59
2019-02-26T10:11:11.065Z,9.40
2019-02-26T10:12:15.139Z,9.42
2019-02-26T10:13:11.043Z,9.36
2019-02-26T10:14:12.681Z,9.44
2019-02-26T10:15:11.025Z,9.42
2019-02-26T10:16:11.044Z,9.29
2019-02-26T10:17:12.214Z,9.45
2019-02-26T10:18:10.988Z,9.59
2019-02-26T10:19:12.629Z,9.70
2019-02-26T10:20:10.988Z,9.81
2019-02-26T10:21:12.332Z,9.84
2019-02-26T10:22:13.666Z,9.76
2019-02-26T10:23:10.943Z,9.72
2019-02-26T10:24:10.931Z,9.90
2019-02-26T10:25:10.927Z,9.99
2019-02-26T10:26:10.997Z,9.94
2019-02-26T10:27:12.096Z,9.97
2019-02-26T10:28:11.617Z,9.99
2019-02-26T10:29:10.884Z,9.87
2019-02-26T10:30:13.471Z,9.77
2019-02-26T10:31:10.865Z,9.87
2019-02-26T10:32:11.795Z,9.72
2019-02-26T10:33:10.865Z,9.70
2019-02-26T10:34:12.783Z,9.85
2019-02-26T10:35:14.013Z,10.06
2019-02-26T10:36:13.489Z,10.13
2019-02-26T10:37:10.822Z,10.25
2019-02-26T10:38:11.705Z,10.41
2019-02-26T10:39:10.776Z,10.58
2019-02-26T10:40:12.070Z,10.62
2019-02-26T10:41:10.762Z,10.36
2019-02-26T10:42:12.458Z,10.30
2019-02-26T10:43:11.048Z,10.36
2019-02-26T10:44:10.734Z,10.48
2019-02-26T10:45:10.712Z,10.64
2019-02-26T10:46:10.832Z,10.80
2019-02-26T10:47:10.775Z,10.79
2019-02-26T10:48:10.693Z,10.92
2019-02-26T10:49:12.401Z,11.07
2019-02-26T10:50:12.852Z,11.16
2019-02-26T10:51:10.652Z,11.25
2019-02-26T10:52:13.377Z,11.26
2019-02-26T10:53:13.775Z,11.08
2019-02-26T10:54:13.742Z,10.97
2019-02-26T10:55:14.980Z,10.86
2019-02-26T10:56:10.613Z,10.79
2019-02-26T10:57:11.902Z,10.82
2019-02-26T10:58:13.037Z,10.72
2019-02-26T10:59:12.712Z,10.77
2019-02-26T11:00:11.574Z,10.82
2019-02-26T11:01:10.560Z,10.95
2019-02-26T11:02:10.538Z,11.05
2019-02-26T11:03:12.901Z,11.19
2019-02-26T11:04:10.511Z,11.13
2019-02-26T11:05:11.360Z,11.25
2019-02-26T11:06:13.108Z,11.26
2019-02-26T11:07:12.403Z,11.30
2019-02-26T11:08:10.491Z,11.37
2019-02-26T11:09:10.475Z,11.45
2019-02-26T11:10:11.915Z,11.45
2019-02-26T11:11:12.839Z,11.49
2019-02-26T11:12:10.449Z,11.62
2019-02-26T11:13:12.459Z,11.63
2019-02-26T11:14:11.313Z,11.78
2019-02-26T11:15:10.432Z,11.89
2019-02-26T11:16:10.443Z,11.97
2019-02-26T11:17:10.454Z,12.02
2019-02-26T11:18:11.784Z,12.12
2019-02-26T11:19:12.184Z,12.14
2019-02-26T11:20:10.363Z,12.17
2019-02-26T11:21:10.356Z,12.10
2019-02-26T11:22:10.382Z,12.07
2019-02-26T11:23:13.268Z,11.99
2019-02-26T11:24:11.259Z,11.93
2019-02-26T11:25:10.325Z,11.93
2019-02-26T11:26:12.556Z,11.85
2019-02-26T11:27:10.278Z,11.70
2019-02-26T11:28:12.845Z,11.71
2019-02-26T11:29:10.353Z,11.67
2019-02-26T11:30:10.258Z,11.77
2019-02-26T11:31:12.240Z,11.81
2019-02-26T11:32:11.144Z,11.86
2019-02-26T11:33:11.354Z,11.91
2019-02-26T11:34:12.757Z,11.99
2019-02-26T11:35:10.189Z,12.03
2019-02-26T11:36:12.604Z,11.97
2019-02-26T11:37:10.204Z,12.02
2019-02-26T11:38:12.327Z,11.93
2019-02-26T11:39:12.009Z,11.96
2019-02-26T11:40:10.185Z,11.86
2019-02-26T11:41:10.179Z,11.83
2019-02-26T11:42:10.531Z,11.80
2019-02-26T11:43:13.795Z,11.76
2019-02-26T11:44:12.689Z,11.76
2019-02-26T11:45:12.616Z,11.70
2019-02-26T11:46:10.106Z,11.77
2019-02-26T11:47:11.216Z,11.93
2019-02-26T11:48:10.144Z,11.97
2019-02-26T11:49:11.881Z,12.25
2019-02-26T11:50:11.801Z,12.33
2019-02-26T11:51:11.958Z,12.53
2019-02-26T11:52:10.004Z,12.73
2019-02-26T11:53:10.110Z,12.88
2019-02-26T11:54:10.752Z,12.61
2019-02-26T11:55:11.277Z,12.50
2019-02-26T11:56:10.018Z,12.47
2019-02-26T11:57:11.236Z,12.48
2019-02-26T11:58:10.209Z,12.40
2019-02-26T11:59:12.455Z,12.50
2019-02-26T12:00:09.935Z,12.47
2019-02-26T12:01:09.915Z,12.63
2019-02-26T12:02:09.933Z,12.50
2019-02-26T12:03:09.928Z,12.61
2019-02-26T12:04:11.219Z,12.69
2019-02-26T12:05:10.752Z,12.84
2019-02-26T12:06:09.884Z,12.83
2019-02-26T12:07:09.922Z,12.87
2019-02-26T12:08:11.497Z,12.84
2019-02-26T12:09:11.429Z,12.90
2019-02-26T12:10:12.393Z,12.88
2019-02-26T12:12:11.634Z,12.83
2019-02-26T12:13:09.794Z,12.44
2019-02-26T12:14:10.966Z,12.37
2019-02-26T12:15:12.298Z,12.37
2019-02-26T12:16:09.775Z,12.29
2019-02-26T12:17:09.741Z,12.25
2019-02-26T12:18:10.587Z,12.26
2019-02-26T12:19:10.795Z,12.36
2019-02-26T12:20:09.696Z,12.35
2019-02-26T12:21:10.544Z,12.28
2019-02-26T12:22:09.739Z,12.18
2019-02-26T12:23:11.549Z,12.28
2019-02-26T12:24:12.007Z,12.32
2019-02-26T12:25:11.104Z,12.21
2019-02-26T12:26:09.665Z,12.17
2019-02-26T12:27:10.827Z,12.15
2019-02-26T12:28:11.575Z,12.10
2019-02-26T12:29:09.614Z,12.17
2019-02-26T12:30:10.096Z,12.18
2019-02-26T12:31:12.647Z,12.30
2019-02-26T12:32:09.585Z,12.30
2019-02-26T12:33:12.182Z,12.29
2019-02-26T12:34:11.816Z,12.23
2019-02-26T12:35:12.142Z,12.28
2019-02-26T12:36:10.264Z,12.36
2019-02-26T12:37:11.693Z,12.37
2019-02-26T12:39:10.503Z,12.68
2019-02-26T12:40:10.413Z,12.72
2019-02-26T12:41:12.032Z,12.80
2019-02-26T12:42:10.651Z,12.66
2019-02-26T12:43:11.888Z,12.86
2019-02-26T12:44:13.307Z,12.90
2019-02-26T12:45:13.080Z,12.95
2019-02-26T12:46:09.444Z,13.03
2019-02-26T12:47:11.515Z,13.01
2019-02-26T12:48:10.205Z,13.23
2019-02-26T12:49:12.012Z,13.20
2019-02-26T12:50:11.539Z,13.37
2019-02-26T12:51:09.462Z,13.43
2019-02-26T12:52:09.370Z,13.49
2019-02-26T12:53:12.736Z,13.52
2019-02-26T12:54:13.704Z,13.46
2019-02-26T12:55:10.538Z,13.40
2019-02-26T12:56:09.343Z,13.57
2019-02-26T12:57:09.322Z,13.71
2019-02-26T12:58:11.245Z,13.83
2019-02-26T12:59:10.331Z,13.91
2019-02-26T13:00:10.744Z,14.07
2019-02-26T13:01:09.372Z,14.28
2019-02-26T13:02:12.799Z,14.45
2019-02-26T13:03:12.558Z,14.33
2019-02-26T13:04:12.966Z,14.07
2019-02-26T13:05:12.827Z,14.08
2019-02-26T13:06:12.005Z,13.98
2019-02-26T13:07:10.282Z,13.98
2019-02-26T13:08:09.962Z,14.00
2019-02-26T13:09:09.259Z,14.05
2019-02-26T13:10:09.258Z,14.08
2019-02-26T13:11:11.648Z,13.93
2019-02-26T13:12:11.413Z,13.89
2019-02-26T13:13:09.251Z,13.94
2019-02-26T13:14:09.183Z,13.83
2019-02-26T13:15:09.932Z,13.76
2019-02-26T13:16:09.128Z,13.57
2019-02-26T13:17:09.198Z,13.50